Time;durP1;ratioP1;P1;durP2;ratioP2;P2;SDS_P1;SDS_P2;PMS_P1;PMS_P2;Temp;Humidity;BMP_temperature;BMP_pressure;BME280_temperature;BME280_humidity;BME280_pressure;Samples;Min_cycle;Max_cycle;Signal;HPM_P1;HPM_P2
2022/11/02 00:01:02;;;;;;;1.70;1.57;;;8.50;87.80;7.60;96568.00;;;;5094106;28;20213;-53
2022/11/02 00:03:28;;;;;;;0.77;0.77;;;8.40;89.30;7.60;96567.00;;;;5094010;28;20317;-52
2022/11/02 00:05:55;;;;;;;0.77;0.77;;;8.40;89.10;7.70;96563.00;;;;5094073;28;20634;-52
2022/11/02 00:08:24;;;;;;;0.70;0.70;;;8.40;89.70;7.80;96563.00;;;;5093930;28;20279;-53
2022/11/02 00:10:50;;;;;;;1.33;1.23;;;8.60;89.80;7.80;96560.00;;;;5093862;28;20249;-51
2022/11/02 00:13:17;;;;;;;5.53;1.27;;;8.50;90.00;7.80;96570.00;;;;5093719;28;20203;-51
2022/11/02 00:15:46;;;;;;;0.83;0.83;;;8.60;90.70;7.90;96563.00;;;;5093714;28;20219;-52
2022/11/02 00:18:15;;;;;;;1.00;1.00;;;8.60;91.00;7.70;96556.00;;;;5093635;28;20302;-51
2022/11/02 00:20:43;;;;;;;1.00;1.00;;;8.40;88.20;7.70;96533.00;;;;5092731;28;20263;-57
2022/11/02 00:23:12;;;;;;;1.00;1.00;;;8.40;88.90;7.40;96555.00;;;;5093658;28;20205;-55
2022/11/02 00:25:40;;;;;;;0.50;0.50;;;8.20;87.40;7.40;96560.00;;;;5093608;28;20263;-53
2022/11/02 00:28:07;;;;;;;0.87;0.87;;;8.30;88.30;7.30;96565.00;;;;5093226;28;20321;-53
2022/11/02 00:30:37;;;;;;;1.17;1.17;;;8.20;88.60;7.30;96561.00;;;;5093540;28;20295;-54
2022/11/02 00:33:04;;;;;;;2.70;2.50;;;8.10;89.00;7.20;96574.00;;;;5093596;28;20226;-52
2022/11/02 00:35:32;;;;;;;1.53;1.30;;;8.10;90.70;7.30;96567.00;;;;5093529;28;20281;-53
2022/11/02 00:37:59;;;;;;;1.00;1.00;;;8.10;90.10;7.40;96580.00;;;;5093305;28;20226;-53
2022/11/02 00:40:25;;;;;;;0.87;0.87;;;8.10;90.60;7.50;96577.00;;;;5093340;28;20198;-53
2022/11/02 00:42:54;;;;;;;1.50;1.40;;;8.20;90.80;7.40;96584.00;;;;5093455;28;20243;-53
2022/11/02 00:45:21;;;;;;;0.60;0.60;;;8.20;90.80;7.50;96589.00;;;;5093332;28;20220;-53
2022/11/02 00:47:48;;;;;;;0.70;0.70;;;8.30;90.60;7.50;96583.00;;;;5093299;28;20187;-53
2022/11/02 00:50:16;;;;;;;0.90;0.90;;;8.30;91.20;7.50;96590.00;;;;5093245;28;20639;-52
2022/11/02 00:52:42;;;;;;;6.13;1.13;;;8.30;90.90;7.50;96588.00;;;;5092293;28;20292;-53
2022/11/02 00:55:10;;;;;;;0.70;0.70;;;8.30;90.60;7.30;96592.00;;;;5093083;28;20198;-53
2022/11/02 00:57:38;;;;;;;0.80;0.80;;;8.10;91.50;7.30;96592.00;;;;5093101;28;20218;-53
2022/11/02 01:00:08;;;;;;;0.60;0.60;;;8.20;91.10;7.20;96587.00;;;;5093220;28;20206;-55
2022/11/02 01:02:35;;;;;;;0.60;0.60;;;8.10;90.30;7.20;96586.00;;;;5093075;28;20236;-54
2022/11/02 01:05:02;;;;;;;0.60;0.60;;;8.00;90.70;7.20;96587.00;;;;5093056;28;20205;-54
2022/11/02 01:07:29;;;;;;;1.00;1.00;;;8.00;89.70;7.20;96580.00;;;;5092936;28;20267;-53
2022/11/02 01:09:56;;;;;;;0.93;0.93;;;7.90;89.40;7.10;96584.00;;;;5093027;28;20211;-53
2022/11/02 01:12:22;;;;;;;0.60;0.60;;;8.00;89.50;7.10;96587.00;;;;5092815;28;20363;-53
2022/11/02 01:14:50;;;;;;;2.33;1.47;;;8.00;90.10;7.10;96576.00;;;;5092855;28;20255;-53
2022/11/02 01:17:20;;;;;;;0.93;0.93;;;8.00;89.60;7.20;96580.00;;;;5092638;28;20257;-53
2022/11/02 01:19:46;;;;;;;1.00;1.00;;;8.00;89.50;7.20;96568.00;;;;5092888;28;20546;-53
2022/11/02 01:22:12;;;;;;;0.97;0.97;;;8.00;89.40;7.20;96566.00;;;;5092800;28;20631;-54
2022/11/02 01:24:39;;;;;;;1.53;1.43;;;8.00;89.50;7.20;96574.00;;;;5092721;28;20643;-51
2022/11/02 01:27:06;;;;;;;0.50;0.50;;;8.00;89.90;7.20;96572.00;;;;5092710;28;20263;-50
2022/11/02 01:29:32;;;;;;;0.90;0.90;;;7.90;88.90;7.10;96565.00;;;;5092598;28;20218;-61
2022/11/02 01:32:01;;;;;;;1.70;1.60;;;7.90;89.10;7.10;96567.00;;;;5092713;28;20206;-52
2022/11/02 01:34:28;;;;;;;1.37;1.07;;;7.90;89.90;7.10;96564.00;;;;5092708;28;20696;-55
2022/11/02 01:36:54;;;;;;;0.60;0.60;;;7.90;90.20;7.10;96557.00;;;;5092724;28;20238;-52
2022/11/02 01:39:20;;;;;;;0.80;0.80;;;8.00;90.00;7.10;96561.00;;;;5095012;28;20208;-53
2022/11/02 01:41:51;;;;;;;1.73;1.13;;;;;7.10;96548.00;;;;5095160;28;20271;-52
2022/11/02 01:44:28;;;;;;;1.10;1.10;;;7.90;90.70;7.20;96555.00;;;;5095990;28;20194;-52
2022/11/02 01:47:02;;;;;;;2.17;2.07;;;8.00;90.70;7.00;96554.00;;;;5095873;28;20317;-52
2022/11/02 01:49:35;;;;;;;1.80;0.97;;;7.80;90.40;6.90;96550.00;;;;5095940;28;20198;-52
2022/11/02 01:52:07;;;;;;;0.90;0.90;;;7.80;91.10;7.00;96548.00;;;;5077913;28;20231;-52
2022/11/02 01:54:43;;;;;;;0.73;0.73;;;7.80;91.70;7.00;96540.00;;;;5095886;28;20270;-52
2022/11/02 01:57:16;;;;;;;0.80;0.80;;;7.70;90.70;6.90;96548.00;;;;5095769;28;20659;-52
2022/11/02 01:59:54;;;;;;;0.93;0.93;;;7.70;91.50;6.90;96538.00;;;;5095979;28;20206;-52
2022/11/02 02:02:24;;;;;;;0.70;0.70;;;7.70;91.30;7.00;96534.00;;;;5095707;28;20232;-53
2022/11/02 02:04:58;;;;;;;1.27;1.27;;;7.70;91.90;7.00;96529.00;;;;5095725;28;20334;-52
2022/11/02 02:07:27;;;;;;;0.80;0.80;;;7.70;92.00;6.90;96529.00;;;;5095700;28;20183;-52
2022/11/02 02:09:55;;;;;;;0.60;0.60;;;7.70;91.40;7.00;96522.00;;;;5095834;28;20579;-52
2022/11/02 02:12:24;;;;;;;0.83;0.83;;;7.70;91.90;7.00;96528.00;;;;5095562;28;20218;-53
2022/11/02 02:14:51;;;;;;;1.30;1.13;;;7.70;92.60;7.00;96537.00;;;;5095464;28;20229;-52
2022/11/02 02:17:39;;;;;;;5.00;1.17;;;7.70;91.80;6.90;96530.00;;;;5095437;28;20218;-51
2022/11/02 02:20:16;;;;;;;0.90;0.90;;;7.70;92.40;6.90;96520.00;;;;5095590;28;20662;-54
2022/11/02 02:23:17;;;;;;;1.40;1.30;;;7.80;92.80;7.10;96517.00;;;;5095512;28;20669;-53
2022/11/02 02:26:37;;;;;;;0.63;0.63;;;7.80;93.50;7.20;96532.00;;;;5095009;28;20536;-54
2022/11/02 02:29:11;;;;;;;1.30;1.20;;;;;7.10;96522.00;;;;5095605;28;20286;-52
2022/11/02 02:31:45;;;;;;;2.53;0.80;;;7.90;93.50;7.10;96528.00;;;;5095201;28;20233;-51
2022/11/02 02:34:19;;;;;;;1.37;1.27;;;7.90;92.50;7.10;96514.00;;;;5095224;28;20193;-52
2022/11/02 02:36:51;;;;;;;0.70;0.70;;;7.90;92.70;7.00;96523.00;;;;5095059;28;20245;-52
2022/11/02 02:39:26;;;;;;;0.70;0.70;;;7.80;91.70;7.00;96506.00;;;;5095268;28;20232;-52
2022/11/02 02:42:00;;;;;;;3.20;1.90;;;7.70;91.60;6.90;96506.00;;;;5095197;28;20226;-52
2022/11/02 02:44:35;;;;;;;3.70;1.00;;;7.80;92.40;7.00;96509.00;;;;5095172;28;20217;-52
2022/11/02 02:47:08;;;;;;;1.07;1.07;;;;;7.00;96509.00;;;;5094961;28;20601;-52
2022/11/02 02:49:42;;;;;;;1.60;1.40;;;7.80;92.10;7.00;96507.00;;;;5094067;28;20214;-52
2022/11/02 02:52:11;;;;;;;0.80;0.80;;;7.80;92.30;7.00;96504.00;;;;5094940;28;20213;-51
2022/11/02 02:54:43;;;;;;;0.80;0.80;;;7.90;92.30;7.00;96502.00;;;;5094912;28;20238;-53
2022/11/02 02:57:13;;;;;;;2.20;1.33;;;7.90;92.80;7.00;96501.00;;;;5094979;28;20229;-54
2022/11/02 02:59:43;;;;;;;1.23;1.23;;;7.70;93.90;7.00;96509.00;;;;5095041;28;20294;-53
2022/11/02 03:02:17;;;;;;;0.60;0.60;;;7.80;92.10;7.00;96499.00;;;;5094825;28;20199;-55
2022/11/02 03:04:46;;;;;;;0.73;0.73;;;7.80;92.60;7.00;96500.00;;;;5094720;28;20618;-51
2022/11/02 03:07:19;;;;;;;1.13;1.03;;;7.70;92.30;7.10;96506.00;;;;5094728;28;20276;-51
2022/11/02 03:09:56;;;;;;;0.60;0.60;;;7.80;92.00;7.00;96503.00;;;;5094636;28;20274;-53
2022/11/02 03:12:36;;;;;;;2.20;1.50;;;7.80;92.20;7.00;96498.00;;;;5093659;28;20310;-58
2022/11/02 03:15:15;;;;;;;0.67;0.67;;;7.90;93.00;7.10;96498.00;;;;5094711;28;20242;-59
2022/11/02 03:17:56;;;;;;;2.20;0.83;;;7.90;93.40;7.00;96507.00;;;;5094615;28;20733;-53
2022/11/02 03:20:32;;;;;;;1.10;1.07;;;7.80;92.40;7.00;96505.00;;;;5094545;28;20285;-52
2022/11/02 03:23:11;;;;;;;2.00;1.90;;;7.80;93.10;7.10;96504.00;;;;5094459;28;20728;-53
2022/11/02 03:25:53;;;;;;;0.73;0.73;;;7.80;92.40;7.10;96505.00;;;;5094388;28;20277;-51
2022/11/02 03:28:42;;;;;;;0.97;0.97;;;7.90;93.10;7.00;96503.00;;;;5094484;28;20178;-51
2022/11/02 03:31:16;;;;;;;1.10;1.10;;;7.80;92.60;6.90;96508.00;;;;5094273;28;20315;-52
2022/11/02 03:33:54;;;;;;;0.60;0.60;;;7.70;91.50;6.90;96511.00;;;;5094307;28;20195;-51
2022/11/02 03:36:31;;;;;;;0.70;0.70;;;7.60;92.20;6.80;96512.00;;;;5094293;28;20257;-51
2022/11/02 03:39:07;;;;;;;1.50;1.40;;;7.70;93.10;7.10;96531.00;;;;5094232;28;20226;-51
2022/11/02 03:41:38;;;;;;;1.90;1.53;;;7.90;94.00;7.10;96535.00;;;;5094234;28;20303;-51
2022/11/02 03:44:10;;;;;;;0.93;0.93;;;7.90;94.70;7.20;96530.00;;;;5094181;28;20239;-51
2022/11/02 03:46:41;;;;;;;1.17;1.00;;;8.00;94.70;7.20;96528.00;;;;5094302;28;20675;-51
2022/11/02 03:49:14;;;;;;;0.70;0.70;;;8.00;94.10;7.20;96532.00;;;;5094204;28;20295;-52
2022/11/02 03:51:45;;;;;;;0.60;0.60;;;8.00;94.80;7.20;96537.00;;;;5094142;28;20238;-53
2022/11/02 03:54:21;;;;;;;1.13;1.13;;;8.00;95.00;7.30;96538.00;;;;5093146;28;20207;-51
2022/11/02 03:56:52;;;;;;;1.30;1.23;;;8.10;94.70;7.30;96530.00;;;;5093924;28;20685;-52
2022/11/02 03:59:18;;;;;;;1.70;1.60;;;8.00;93.90;7.20;96542.00;;;;5093978;28;20191;-52
2022/11/02 04:01:49;;;;;;;0.60;0.60;;;8.00;94.50;7.20;96556.00;;;;5093480;28;20314;-52
2022/11/02 04:04:16;;;;;;;0.80;0.80;;;8.10;99.90;7.20;96549.00;;;;5092967;28;20206;-52
2022/11/02 04:06:47;;;;;;;0.60;0.60;;;8.00;94.40;7.20;96552.00;;;;5093912;28;20218;-52
2022/11/02 04:09:14;;;;;;;0.53;0.53;;;;;7.30;96546.00;;;;5093807;28;20194;-52
2022/11/02 04:14:37;;;;;;;0.80;0.80;;;8.10;95.80;7.40;96528.00;;;;5093692;28;20654;-52
2022/11/02 04:19:49;;;;;;;0.50;0.50;;;8.00;99.90;7.30;96537.00;;;;5093653;28;20190;-52
2022/11/02 04:25:15;;;;;;;1.13;1.13;;;8.10;94.80;7.30;96545.00;;;;5093618;28;20286;-52
2022/11/02 04:27:42;;;;;;;1.40;1.40;;;8.10;94.90;7.40;96549.00;;;;5093453;28;20658;-52
2022/11/02 04:30:10;;;;;;;7.33;0.90;;;8.20;94.60;7.40;96553.00;;;;5092576;28;20202;-52
2022/11/02 04:35:30;;;;;;;0.73;0.73;;;8.30;95.10;7.50;96562.00;;;;5093380;28;20515;-52
2022/11/02 04:40:49;;;;;;;0.50;0.50;;;8.20;96.20;7.30;96556.00;;;;5093303;28;20642;-52
2022/11/02 04:43:16;;;;;;;0.93;0.93;;;8.20;96.30;7.30;96553.00;;;;5093393;28;20198;-51
2022/11/02 04:45:42;;;;;;;0.70;0.70;;;8.20;96.90;7.40;96551.00;;;;5093435;28;20262;-52
2022/11/02 04:48:09;;;;;;;0.50;0.50;;;8.20;96.90;7.50;96560.00;;;;5093311;28;20230;-51
2022/11/02 04:50:38;;;;;;;0.80;0.80;;;8.30;96.70;7.60;96563.00;;;;5093284;28;20686;-53
2022/11/02 04:53:06;;;;;;;0.90;0.90;;;8.40;95.80;7.60;96560.00;;;;5093178;28;20305;-55
2022/11/02 04:55:33;;;;;;;0.60;0.60;;;8.40;95.90;7.70;96556.00;;;;5093209;28;20526;-52
2022/11/02 04:58:00;;;;;;;0.80;0.80;;;8.40;95.70;7.70;96563.00;;;;5093046;28;20618;-51
2022/11/02 05:00:29;;;;;;;0.60;0.60;;;8.50;96.80;7.70;96565.00;;;;5092973;28;20226;-51
2022/11/02 05:02:56;;;;;;;1.00;1.00;;;8.50;97.00;7.70;96563.00;;;;5093055;28;20219;-51
2022/11/02 05:05:23;;;;;;;0.60;0.60;;;8.50;95.60;7.70;96560.00;;;;5093097;28;20627;-53
2022/11/02 05:07:50;;;;;;;0.60;0.60;;;8.50;96.90;7.60;96560.00;;;;5092969;28;20670;-53
2022/11/02 05:10:18;;;;;;;0.77;0.77;;;8.40;94.20;7.60;96568.00;;;;5093009;28;20222;-52
2022/11/02 05:12:45;;;;;;;0.60;0.60;;;8.30;94.90;7.60;96567.00;;;;5093243;28;20219;-53
2022/11/02 05:15:11;;;;;;;0.57;0.57;;;8.30;95.00;7.50;96579.00;;;;5096562;28;20506;-51
2022/11/02 05:17:38;;;;;;;1.17;1.07;;;8.30;94.40;7.50;96576.00;;;;5096339;28;20309;-53
2022/11/02 05:20:08;;;;;;;0.50;0.50;;;8.30;94.60;7.50;96582.00;;;;5096470;28;20210;-51
2022/11/02 05:22:35;;;;;;;1.17;1.17;;;8.30;96.00;7.60;96582.00;;;;5096364;28;20218;-53
2022/11/02 05:25:04;;;;;;;0.87;0.87;;;8.30;95.50;7.60;96583.00;;;;5096428;28;20772;-52
2022/11/02 05:27:31;;;;;;;1.63;1.53;;;8.30;95.60;7.50;96573.00;;;;5096119;28;20674;-51
2022/11/02 05:29:59;;;;;;;0.53;0.53;;;8.40;95.80;7.80;96572.00;;;;5096357;28;20269;-52
2022/11/02 05:32:27;;;;;;;0.50;0.50;;;8.60;96.10;7.80;96581.00;;;;5096279;28;20274;-52
2022/11/02 05:34:53;;;;;;;1.10;1.10;;;8.60;96.70;8.00;96588.00;;;;5096341;28;20212;-52
2022/11/02 05:37:20;;;;;;;0.60;0.60;;;8.70;97.30;7.90;96586.00;;;;5096067;28;20654;-54
2022/11/02 05:39:47;;;;;;;0.80;0.80;;;8.70;96.50;8.00;96589.00;;;;5096265;28;20563;-52
2022/11/02 05:42:13;;;;;;;0.97;0.97;;;8.80;97.10;8.00;96587.00;;;;5095256;28;20523;-52
2022/11/02 05:44:40;;;;;;;0.70;0.70;;;8.70;96.20;8.00;96579.00;;;;5096122;28;20190;-54
2022/11/02 05:47:09;;;;;;;0.87;0.87;;;;;8.00;96585.00;;;;5096050;28;20214;-54
2022/11/02 05:49:35;;;;;;;0.80;0.80;;;8.60;99.90;8.00;96588.00;;;;5095972;28;20203;-51
2022/11/02 05:52:01;;;;;;;0.60;0.60;;;8.80;95.10;8.10;96594.00;;;;5095999;28;20273;-51
2022/11/02 05:54:28;;;;;;;1.03;1.03;;;8.70;93.30;7.90;96609.00;;;;5095946;28;20212;-51
2022/11/02 05:56:56;;;;;;;2.90;1.60;;;8.70;94.00;7.90;96598.00;;;;5095799;28;20190;-54
2022/11/02 05:59:23;;;;;;;0.70;0.70;;;8.80;95.00;8.10;96597.00;;;;5096031;28;20199;-55
2022/11/02 06:01:49;;;;;;;4.20;1.33;;;8.80;95.60;8.10;96606.00;;;;5095834;28;20204;-54
2022/11/02 06:04:18;;;;;;;0.60;0.60;;;8.90;96.10;8.20;96608.00;;;;5094727;28;20295;-52
2022/11/02 06:06:44;;;;;;;1.07;1.07;;;8.90;95.20;8.20;96605.00;;;;5095729;28;20206;-51
2022/11/02 06:09:11;;;;;;;1.77;1.67;;;8.90;94.80;8.30;96607.00;;;;5095523;28;20225;-52
2022/11/02 06:11:37;;;;;;;1.80;1.60;;;9.00;95.40;8.20;96612.00;;;;5095586;28;20526;-52
2022/11/02 06:14:04;;;;;;;1.00;1.00;;;9.00;94.10;8.40;96616.00;;;;5095393;28;20226;-52
2022/11/02 06:16:31;;;;;;;0.63;0.63;;;9.10;94.70;8.40;96620.00;;;;5077671;28;20218;-52
2022/11/02 06:18:58;;;;;;;0.60;0.60;;;;;8.50;96625.00;;;;5094578;28;20238;-51
2022/11/02 06:21:24;;;;;;;0.60;0.60;;;9.20;94.30;8.50;96629.00;;;;5095501;28;20635;-53
2022/11/02 06:23:51;;;;;;;0.60;0.60;;;9.20;93.60;8.50;96631.00;;;;5095182;28;20231;-52
2022/11/02 06:26:17;;;;;;;5.10;4.63;;;;;8.60;96639.00;;;;5095355;28;20234;-52
2022/11/02 06:28:44;;;;;;;3.67;3.37;;;9.30;93.10;8.60;96636.00;;;;5095464;28;20350;-57
2022/11/02 06:31:11;;;;;;;0.93;0.93;;;9.30;93.80;8.60;96637.00;;;;5095383;28;20195;-53
2022/11/02 06:33:38;;;;;;;0.80;0.80;;;9.30;93.50;8.60;96651.00;;;;5095427;28;20230;-54
2022/11/02 06:36:05;;;;;;;0.50;0.50;;;9.30;93.60;8.50;96647.00;;;;5095582;28;20281;-53
2022/11/02 06:38:31;;;;;;;0.60;0.60;;;9.30;92.70;8.60;96654.00;;;;5095626;28;20324;-54
2022/11/02 06:41:00;;;;;;;0.70;0.70;;;;;8.60;96663.00;;;;5095496;28;20277;-52
2022/11/02 06:43:27;;;;;;;0.70;0.70;;;9.30;92.80;8.50;96664.00;;;;5095296;28;20214;-53
2022/11/02 06:45:54;;;;;;;1.60;1.37;;;;;8.60;96660.00;;;;5095223;28;20802;-52
2022/11/02 06:48:22;;;;;;;0.60;0.60;;;9.30;93.20;8.70;96664.00;;;;5094955;28;20194;-51
2022/11/02 06:50:48;;;;;;;0.70;0.70;;;9.40;94.10;8.80;96668.00;;;;5095068;28;20191;-53
2022/11/02 06:53:14;;;;;;;1.33;1.23;;;9.40;93.90;8.70;96666.00;;;;5094820;28;20627;-53
2022/11/02 06:55:41;;;;;;;0.70;0.70;;;9.40;93.30;8.80;96665.00;;;;5094980;28;20194;-53
2022/11/02 06:58:08;;;;;;;0.60;0.60;;;9.50;94.00;8.80;96670.00;;;;5094860;28;20750;-52
2022/11/02 07:00:34;;;;;;;2.43;2.23;;;9.50;94.30;8.90;96672.00;;;;5094789;28;20210;-53
2022/11/02 07:03:06;;;;;;;0.53;0.53;;;;;9.00;96679.00;;;;5094754;28;20202;-54
2022/11/02 07:05:33;;;;;;;1.60;1.33;;;9.70;94.50;9.00;96682.00;;;;5094755;28;20655;-53
2022/11/02 07:08:03;;;;;;;0.77;0.77;;;9.60;99.90;9.10;96661.00;;;;5094785;28;20187;-52
2022/11/02 07:10:31;;;;;;;1.30;1.20;;;9.80;99.60;9.20;96701.00;;;;5094604;28;20305;-52
2022/11/02 07:12:58;;;;;;;0.70;0.70;;;10.00;94.50;9.30;96701.00;;;;5094590;28;20206;-55
2022/11/02 07:15:26;;;;;;;1.33;1.27;;;10.00;95.10;9.40;96705.00;;;;5094565;28;20281;-52
2022/11/02 07:17:53;;;;;;;3.77;2.47;;;10.10;94.90;9.50;96717.00;;;;5094681;28;20233;-53
2022/11/02 07:20:20;;;;;;;0.80;0.80;;;10.20;94.50;9.60;96710.00;;;;5094457;28;20516;-52
2022/11/02 07:22:53;;;;;;;0.60;0.60;;;10.20;94.50;9.60;96719.00;;;;5093580;28;20198;-52
2022/11/02 07:25:20;;;;;;;0.70;0.70;;;10.30;94.20;9.70;96715.00;;;;5094434;28;20268;-52
2022/11/02 07:27:49;;;;;;;1.00;1.00;;;10.40;93.70;9.90;96716.00;;;;5094433;28;20194;-52
2022/11/02 07:30:16;;;;;;;0.63;0.63;;;10.50;93.60;9.90;96696.00;;;;5094416;28;20190;-53
2022/11/02 07:32:46;;;;;;;1.80;0.70;;;10.60;93.20;10.10;96721.00;;;;5094448;28;20203;-53
2022/11/02 07:35:15;;;;;;;0.60;0.60;;;10.70;93.00;10.20;96730.00;;;;5093231;28;20230;-52
2022/11/02 07:37:42;;;;;;;1.63;1.53;;;10.80;91.50;10.20;96728.00;;;;5093364;28;20787;-51
2022/11/02 07:40:13;;;;;;;1.67;0.77;;;10.80;92.40;10.30;96730.00;;;;5092993;28;20258;-51
2022/11/02 07:42:44;;;;;;;0.50;0.50;;;11.00;92.10;10.40;96731.00;;;;5094219;28;20179;-53
2022/11/02 07:45:11;;;;;;;0.87;0.87;;;11.00;92.30;10.50;96731.00;;;;5094074;28;20299;-52
2022/11/02 07:47:43;;;;;;;1.20;1.20;;;11.10;91.40;10.50;96741.00;;;;5094082;28;20222;-52
2022/11/02 07:50:09;;;;;;;2.63;1.63;;;11.20;92.00;10.50;96723.00;;;;5094023;28;20222;-53
2022/11/02 07:52:44;;;;;;;0.70;0.70;;;11.10;91.40;10.50;96729.00;;;;5094113;28;20233;-53
2022/11/02 07:55:12;;;;;;;0.60;0.60;;;11.20;92.00;10.50;96728.00;;;;5093936;28;20232;-54
2022/11/02 07:57:39;;;;;;;0.90;0.90;;;11.10;92.00;10.50;96733.00;;;;5076273;28;20218;-55
2022/11/02 08:00:07;;;;;;;0.60;0.60;;;11.10;92.30;10.50;96732.00;;;;5094039;28;20592;-54
2022/11/02 08:02:33;;;;;;;2.87;1.67;;;11.20;92.20;10.70;96746.00;;;;5094005;28;20233;-55
2022/11/02 08:05:00;;;;;;;0.80;0.80;;;11.40;91.90;10.80;96753.00;;;;5093792;28;20227;-53
2022/11/02 08:07:26;;;;;;;0.60;0.60;;;11.30;91.90;10.90;96756.00;;;;5093985;28;20222;-52
2022/11/02 08:09:55;;;;;;;1.13;1.03;;;11.50;91.30;11.00;96759.00;;;;5075915;28;20623;-52
2022/11/02 08:12:22;;;;;;;0.50;0.50;;;11.50;90.70;10.80;96761.00;;;;5093605;28;20226;-53
2022/11/02 08:14:49;;;;;;;0.63;0.63;;;11.50;92.80;10.90;96762.00;;;;5075940;28;20651;-52
2022/11/02 08:17:16;;;;;;;0.50;0.50;;;;;10.60;96756.00;;;;5093501;28;20218;-52
2022/11/02 08:19:43;;;;;;;0.50;0.50;;;11.30;93.20;10.60;96758.00;;;;5075724;28;20344;-53
2022/11/02 08:22:12;;;;;;;0.50;0.50;;;11.20;94.80;10.60;96757.00;;;;5075546;28;20211;-53
2022/11/02 08:24:38;;;;;;;0.60;0.60;;;11.20;95.50;10.90;96754.00;;;;5093693;28;20237;-53
2022/11/02 08:27:05;;;;;;;1.90;1.50;;;11.70;93.60;11.30;96761.00;;;;5093593;28;20198;-53
2022/11/02 08:29:35;;;;;;;0.60;0.60;;;11.90;92.20;11.40;96761.00;;;;5093573;28;20230;-53
2022/11/02 08:32:02;;;;;;;0.60;0.60;;;11.90;90.80;11.40;96762.00;;;;5093645;28;20669;-54
2022/11/02 08:34:28;;;;;;;0.70;0.70;;;11.90;89.10;11.30;96772.00;;;;5075939;28;20199;-53
2022/11/02 08:36:55;;;;;;;0.70;0.70;;;11.90;90.90;11.60;96749.00;;;;5093617;28;20191;-52
2022/11/02 08:39:22;;;;;;;0.73;0.73;;;12.20;88.40;11.80;96769.00;;;;5092652;28;20242;-54
2022/11/02 08:41:48;;;;;;;1.33;1.33;;;12.30;86.50;12.00;96754.00;;;;5075690;28;20234;-53
2022/11/02 08:44:17;;;;;;;0.70;0.70;;;12.40;83.70;12.10;96763.00;;;;5094007;28;20195;-54
2022/11/02 08:46:44;;;;;;;1.33;1.13;;;12.40;82.70;12.00;96757.00;;;;5095383;28;20206;-52
2022/11/02 08:49:11;;;;;;;1.93;1.00;;;12.50;83.80;11.90;96753.00;;;;5077971;28;20301;-52
2022/11/02 08:51:37;;;;;;;0.73;0.73;;;12.50;84.00;12.00;96766.00;;;;5097171;28;20202;-52
2022/11/02 08:54:04;;;;;;;0.80;0.80;;;12.50;83.90;12.10;96770.00;;;;5096967;28;20332;-53
2022/11/02 08:56:30;;;;;;;0.80;0.80;;;12.60;79.70;12.10;96773.00;;;;5079028;28;20309;-52
2022/11/02 08:58:57;;;;;;;0.90;0.90;;;12.60;79.60;12.10;96761.00;;;;5096740;28;20222;-52
2022/11/02 09:01:24;;;;;;;1.43;1.33;;;12.60;80.20;12.20;96769.00;;;;5096741;28;20650;-52
2022/11/02 09:03:51;;;;;;;1.10;0.97;;;;;12.20;96764.00;;;;5079172;28;20723;-54
2022/11/02 09:06:18;;;;;;;0.60;0.60;;;12.70;76.20;12.00;96768.00;;;;5096811;28;20270;-57
2022/11/02 09:08:44;;;;;;;0.70;0.70;;;12.70;77.70;12.20;96763.00;;;;5078879;28;20199;-52
2022/11/02 09:11:11;;;;;;;0.80;0.80;;;12.60;76.80;12.00;96764.00;;;;5096541;28;20279;-52
2022/11/02 09:13:38;;;;;;;0.60;0.60;;;12.70;77.00;12.10;96759.00;;;;5096612;28;20210;-52
2022/11/02 09:16:05;;;;;;;0.50;0.50;;;12.70;77.20;12.20;96763.00;;;;5096618;28;20301;-53
2022/11/02 09:18:32;;;;;;;0.60;0.60;;;12.80;76.10;12.30;96763.00;;;;5096528;28;20218;-53
2022/11/02 09:21:02;;;;;;;1.43;1.33;;;12.80;74.30;12.20;96751.00;;;;5095529;28;20218;-53
2022/11/02 09:23:29;;;;;;;1.47;1.37;;;;;12.40;96753.00;;;;5096416;28;20287;-52
2022/11/02 09:25:57;;;;;;;1.80;0.80;;;12.90;75.00;12.30;96754.00;;;;5096340;28;20282;-52
2022/11/02 09:28:23;;;;;;;0.50;0.50;;;13.00;76.20;12.60;96758.00;;;;5096215;28;20297;-54
2022/11/02 09:30:50;;;;;;;1.00;0.70;;;13.00;74.40;12.40;96760.00;;;;5096245;28;20217;-54
2022/11/02 09:33:17;;;;;;;0.50;0.50;;;13.00;74.00;12.50;96760.00;;;;5096114;28;20238;-52
2022/11/02 09:35:48;;;;;;;0.70;0.70;;;13.20;72.00;12.60;96764.00;;;;5096250;28;20256;-53
2022/11/02 09:38:17;;;;;;;0.60;0.60;;;13.10;73.00;12.40;96753.00;;;;5078192;28;20292;-53
2022/11/02 09:40:52;;;;;;;0.57;0.57;;;12.90;74.10;12.50;96775.00;;;;5096156;28;20195;-52
2022/11/02 09:43:32;;;;;;;0.93;0.93;;;13.10;73.60;12.60;96770.00;;;;5096123;28;20279;-53
2022/11/02 09:46:05;;;;;;;1.20;1.10;;;13.10;73.50;12.70;96775.00;;;;5095944;28;20271;-52
2022/11/02 09:48:38;;;;;;;1.50;1.23;;;;;12.60;96773.00;;;;5095992;28;20275;-52
2022/11/02 09:51:11;;;;;;;0.80;0.80;;;13.20;73.30;12.70;96778.00;;;;5095916;28;20214;-55
2022/11/02 09:53:50;;;;;;;0.60;0.60;;;13.20;74.00;12.70;96776.00;;;;5094960;28;20198;-53
2022/11/02 09:56:19;;;;;;;1.53;1.43;;;13.20;74.00;12.90;96776.00;;;;5095888;28;20213;-55
2022/11/02 09:58:54;;;;;;;1.53;0.80;;;13.40;72.20;12.80;96784.00;;;;5095349;28;20285;-63
2022/11/02 10:01:50;;;;;;;0.70;0.70;;;13.40;73.60;12.80;96780.00;;;;5095881;28;20229;-54
2022/11/02 10:05:00;;;;;;;0.53;0.53;;;13.40;72.60;13.00;96782.00;;;;5095858;28;20211;-51
2022/11/02 10:07:50;;;;;;;0.87;0.70;;;13.50;71.10;13.00;96773.00;;;;5095696;28;20214;-55
2022/11/02 10:10:28;;;;;;;1.10;1.10;;;13.50;70.00;12.80;96771.00;;;;5095701;28;20619;-55
2022/11/02 10:13:05;;;;;;;0.60;0.60;;;13.40;69.50;12.80;96770.00;;;;5095738;28;20259;-57
2022/11/02 10:15:39;;;;;;;0.97;0.97;;;13.40;70.60;12.90;96775.00;;;;5095564;28;20206;-53
2022/11/02 10:18:18;;;;;;;0.60;0.60;;;13.40;70.50;12.90;96770.00;;;;5095433;28;20218;-53
2022/11/02 10:20:48;;;;;;;0.57;0.57;;;13.50;69.50;13.00;96762.00;;;;5095471;28;20279;-53
2022/11/02 10:23:24;;;;;;;0.80;0.80;;;13.50;69.60;13.00;96768.00;;;;5095570;28;20597;-54
2022/11/02 10:25:52;;;;;;;0.50;0.50;;;13.50;69.10;13.00;96752.00;;;;5094540;28;20610;-54
2022/11/02 10:28:25;;;;;;;0.80;0.80;;;13.60;69.30;13.10;96759.00;;;;5095352;28;20199;-51
2022/11/02 10:30:53;;;;;;;0.60;0.60;;;13.70;66.90;13.00;96766.00;;;;5095205;28;20263;-52
2022/11/02 10:33:25;;;;;;;0.93;0.93;;;13.60;65.70;12.90;96771.00;;;;5095324;28;20225;-52
2022/11/02 10:36:13;;;;;;;1.07;1.07;;;13.60;66.70;13.20;96774.00;;;;5094150;28;20293;-52
2022/11/02 10:38:58;;;;;;;0.70;0.70;;;13.70;65.20;13.20;96771.00;;;;5094181;28;20670;-54
2022/11/02 10:41:47;;;;;;;0.70;0.70;;;13.80;66.10;13.20;96779.00;;;;5095133;28;20217;-54
2022/11/02 10:44:54;;;;;;;0.50;0.50;;;14.00;62.70;13.50;96770.00;;;;5095028;28;20222;-52
2022/11/02 10:47:24;;;;;;;1.73;1.60;;;14.10;60.90;13.50;96775.00;;;;5095125;28;20194;-53
2022/11/02 10:50:29;;;;;;;1.00;1.00;;;13.70;54.10;13.20;96783.00;;;;5095147;28;20206;-53
2022/11/02 10:53:01;;;;;;;0.60;0.60;;;13.80;54.50;13.20;96767.00;;;;5094975;28;20523;-54
2022/11/02 10:55:43;;;;;;;0.73;0.73;;;13.70;53.10;13.40;96775.00;;;;5095023;28;20213;-53
2022/11/02 10:58:16;;;;;;;3.63;1.23;;;13.80;53.10;13.40;96767.00;;;;5094841;28;20234;-53
2022/11/02 11:00:43;;;;;;;0.50;0.50;;;13.80;54.20;13.20;96764.00;;;;5094875;28;20294;-53
2022/11/02 11:03:12;;;;;;;1.23;1.10;;;13.60;53.40;13.10;96773.00;;;;5094862;28;20209;-53
2022/11/02 11:05:58;;;;;;;2.00;1.07;;;13.70;53.10;13.20;96751.00;;;;5094786;28;20202;-52
2022/11/02 11:08:38;;;;;;;0.60;0.60;;;13.70;53.50;13.30;96766.00;;;;5093852;28;20228;-53
2022/11/02 11:11:17;;;;;;;1.90;1.67;;;13.70;52.20;13.80;96750.00;;;;5093693;28;20276;-53
2022/11/02 11:13:54;;;;;;;0.60;0.60;;;14.10;53.50;14.40;96759.00;;;;5094737;28;20602;-54
2022/11/02 11:16:36;;;;;;;5.03;1.67;;;14.60;50.10;14.40;96745.00;;;;5094687;28;20249;-53
2022/11/02 11:19:06;;;;;;;0.70;0.70;;;15.10;46.60;14.80;96751.00;;;;5094589;28;20225;-55
2022/11/02 11:21:39;;;;;;;0.80;0.80;;;15.10;46.20;14.70;96746.00;;;;5094616;28;20195;-55
2022/11/02 11:24:25;;;;;;;0.70;0.70;;;15.30;46.60;15.30;96757.00;;;;5094520;28;20287;-55
2022/11/02 11:27:16;;;;;;;0.50;0.50;;;15.50;43.90;14.90;96743.00;;;;5094657;28;20190;-56
2022/11/02 11:29:54;;;;;;;0.60;0.60;;;15.80;44.40;16.00;96741.00;;;;5094685;28;20301;-58
2022/11/02 11:32:24;;;;;;;0.80;0.80;;;15.90;42.00;15.50;96749.00;;;;5094730;28;20499;-52
2022/11/02 11:34:59;;;;;;;0.60;0.60;;;15.80;42.50;15.00;96769.00;;;;5094449;28;20230;-54
2022/11/02 11:37:26;;;;;;;1.10;1.10;;;15.10;43.30;14.30;96762.00;;;;5094367;28;20201;-55